Matlock, Washington
Current Conditions -  °F | °C
As of 7:53 AM on Tuesday 27 Jan 2015 (Local Time) from KSHN Reporting Station
Haze Haze  
Wind Chill: 47°   Ceiling: 500
Heat Index: 49°   Visibility: 5mi
Dew Point: 47°   Wind: 5mph
Humidity: 93%   Direction: 240°WSW
Pressure: 30.02"   Gusts: NA
Location:  47.24°N, 123.41°W
Report Text: KSHN 271553Z AUTO 24004KT 5SM BR OVC005 09/08 A3002 RMK AO2 SLP167 T00940083
Loading
Personal Weather Stations






























Interactive Weather Map New forecast layout! Learn more

10-Day Weather Forecast

Advertisements
Track Severe Weather on mobile